Time;durP1;ratioP1;P1;durP2;ratioP2;P2;SDS_P1;SDS_P2;PMS_P1;PMS_P2;Temp;Humidity;BMP_temperature;BMP_pressure;BME280_temperature;BME280_humidity;BME280_pressure;Samples;Min_cycle;Max_cycle;Signal;HPM_P1;HPM_P2
2021/08/20 00:01:40;;;;;;;7.70;4.47;;;28.30;99.70;;;;;;4159155;28;20058;-67
2021/08/20 00:03:48;;;;;;;8.30;4.60;;;28.30;99.80;;;;;;4148260;28;20560;-65
2021/08/20 00:05:52;;;;;;;7.72;4.53;;;28.50;99.30;;;;;;4155848;28;20424;-66
2021/08/20 00:07:58;;;;;;;7.07;4.32;;;28.50;99.40;;;;;;4159489;28;20053;-66
2021/08/20 00:10:13;;;;;;;9.68;4.82;;;28.40;99.30;;;;;;4158510;28;20046;-66
2021/08/20 00:12:21;;;;;;;8.50;4.20;;;28.30;99.50;;;;;;4159189;28;20055;-66
2021/08/20 00:14:25;;;;;;;10.10;4.47;;;28.50;99.30;;;;;;4157455;28;20400;-66
2021/08/20 00:16:32;;;;;;;8.27;4.40;;;28.60;99.60;;;;;;4159815;28;20069;-66
2021/08/20 00:18:36;;;;;;;10.02;5.60;;;28.60;99.40;;;;;;4154377;28;20088;-67
2021/08/20 00:20:41;;;;;;;12.77;5.30;;;28.80;99.00;;;;;;4155481;28;20749;-66
2021/08/20 00:22:46;;;;;;;9.73;4.97;;;28.70;99.00;;;;;;4139180;28;20040;-67
2021/08/20 00:24:51;;;;;;;10.07;4.97;;;28.80;99.00;;;;;;4158522;28;20060;-66
2021/08/20 00:26:56;;;;;;;9.45;4.85;;;28.90;98.80;;;;;;4160411;28;20038;-67
2021/08/20 00:29:02;;;;;;;10.07;4.45;;;29.00;98.30;;;;;;4160958;28;20058;-66
2021/08/20 00:31:07;;;;;;;8.15;5.18;;;29.00;98.10;;;;;;4161732;28;20056;-67
2021/08/20 00:33:14;;;;;;;8.77;4.60;;;29.20;97.80;;;;;;4144732;28;20046;-66
2021/08/20 00:35:20;;;;;;;11.45;4.50;;;29.20;97.70;;;;;;4162059;28;20500;-67
2021/08/20 00:37:27;;;;;;;7.22;4.38;;;29.20;97.80;;;;;;4163424;28;20073;-67
2021/08/20 00:39:33;;;;;;;7.18;4.43;;;29.30;97.60;;;;;;4163847;28;20562;-66
2021/08/20 00:41:40;;;;;;;8.70;4.60;;;29.40;97.10;;;;;;4162988;28;20084;-66
2021/08/20 00:43:47;;;;;;;7.57;3.88;;;29.60;96.90;;;;;;4162498;28;20049;-66
2021/08/20 00:45:59;;;;;;;8.40;4.45;;;29.70;96.60;;;;;;4160736;28;20041;-67
2021/08/20 00:48:08;;;;;;;6.35;3.70;;;29.70;96.20;;;;;;4170456;28;20045;-66
2021/08/20 00:50:13;;;;;;;8.45;4.40;;;29.80;95.90;;;;;;4157207;28;20046;-66
2021/08/20 00:52:20;;;;;;;9.07;5.15;;;29.80;96.20;;;;;;4156246;28;20420;-66
2021/08/20 00:54:26;;;;;;;10.65;5.00;;;29.70;96.20;;;;;;4159846;28;20128;-67
2021/08/20 00:56:31;;;;;;;8.93;4.18;;;29.80;96.10;;;;;;4161602;28;20034;-67
2021/08/20 00:58:36;;;;;;;10.32;4.60;;;29.60;96.20;;;;;;4162788;28;20046;-67
2021/08/20 01:00:41;;;;;;;10.48;4.15;;;29.60;96.40;;;;;;4159541;28;20147;-66
2021/08/20 01:02:48;;;;;;;11.70;4.35;;;29.80;96.30;;;;;;4158605;28;20057;-68
2021/08/20 01:04:55;;;;;;;10.65;4.47;;;29.80;96.20;;;;;;4160365;28;20046;-65
2021/08/20 01:07:05;;;;;;;12.60;3.88;;;29.90;96.10;;;;;;4156172;28;20057;-66
2021/08/20 01:09:11;;;;;;;11.40;4.28;;;30.00;95.90;;;;;;4157657;28;20034;-67
2021/08/20 01:11:16;;;;;;;8.07;4.13;;;30.20;95.60;;;;;;4155551;28;20149;-67
2021/08/20 01:13:21;;;;;;;12.93;4.32;;;30.40;94.90;;;;;;4139365;28;20054;-65
2021/08/20 01:15:31;;;;;;;7.00;3.50;;;30.30;94.90;;;;;;4170761;28;20049;-65
2021/08/20 01:17:36;;;;;;;8.70;4.30;;;30.30;94.90;;;;;;4163291;28;20041;-66
2021/08/20 01:19:43;;;;;;;7.40;3.80;;;30.40;94.70;;;;;;4159290;28;20042;-66
2021/08/20 01:21:54;;;;;;;7.25;3.92;;;30.50;94.70;;;;;;4159633;28;20041;-66
2021/08/20 01:24:03;;;;;;;8.07;4.60;;;30.50;94.80;;;;;;4153136;28;20099;-67
2021/08/20 01:26:10;;;;;;;9.57;4.55;;;30.60;94.70;;;;;;4164522;28;20077;-68
2021/08/20 01:28:28;;;;;;;7.78;3.95;;;30.70;94.60;;;;;;4143730;28;20046;-68
2021/08/20 01:30:33;;;;;;;7.80;3.75;;;30.70;94.50;;;;;;4162184;28;20059;-68
2021/08/20 01:32:44;;;;;;;7.05;3.42;;;30.80;94.60;;;;;;4163467;28;20037;-68
2021/08/20 01:34:49;;;;;;;6.95;3.03;;;30.70;92.50;;;;;;4173511;28;20740;-68
2021/08/20 01:36:54;;;;;;;6.30;3.17;;;30.70;92.50;;;;;;4164918;28;20068;-67
2021/08/20 01:38:59;;;;;;;5.50;2.92;;;30.80;92.70;;;;;;4180343;28;20119;-67
2021/08/20 01:41:06;;;;;;;6.00;3.05;;;30.90;92.40;;;;;;4164611;28;20041;-68
2021/08/20 01:43:11;;;;;;;5.25;2.97;;;30.90;92.20;;;;;;4163835;28;20045;-69
2021/08/20 01:45:18;;;;;;;5.70;3.13;;;30.90;91.40;;;;;;4163009;28;20049;-68
2021/08/20 01:47:22;;;;;;;8.48;3.20;;;30.90;91.30;;;;;;4147105;28;20038;-69
2021/08/20 01:49:27;;;;;;;5.53;2.50;;;30.90;91.20;;;;;;4164779;28;20573;-66
2021/08/20 01:51:36;;;;;;;8.20;3.63;;;30.90;90.00;;;;;;4164426;28;20045;-68
2021/08/20 01:53:44;;;;;;;4.90;2.70;;;31.00;90.50;;;;;;4163708;28;20037;-68
2021/08/20 01:55:50;;;;;;;5.82;2.70;;;31.10;90.30;;;;;;4164687;28;20045;-67
2021/08/20 01:58:01;;;;;;;4.70;2.30;;;31.10;89.70;;;;;;4163412;28;20049;-68
2021/08/20 02:00:14;;;;;;;4.47;2.90;;;31.10;88.20;;;;;;4147361;28;20040;-67
2021/08/20 02:02:18;;;;;;;6.57;1.98;;;31.00;90.40;;;;;;4164071;28;20057;-67
2021/08/20 02:04:26;;;;;;;3.95;2.13;;;31.00;90.40;;;;;;4164520;28;20454;-67
2021/08/20 02:06:50;;;;;;;3.92;2.42;;;31.10;90.00;;;;;;4163345;28;20099;-67
2021/08/20 02:08:57;;;;;;;2.92;2.05;;;31.30;88.60;;;;;;4164529;28;20076;-67
2021/08/20 02:11:06;;;;;;;6.05;1.85;;;31.40;89.10;;;;;;4163354;28;20102;-68
2021/08/20 02:13:19;;;;;;;3.25;2.20;;;31.50;89.80;;;;;;4162817;28;20235;-67
2021/08/20 02:15:29;;;;;;;3.05;2.20;;;31.60;90.30;;;;;;4162821;28;20546;-66
2021/08/20 02:17:41;;;;;;;6.47;4.47;;;31.50;87.60;;;;;;4162667;28;20030;-67
2021/08/20 02:19:50;;;;;;;4.97;3.83;;;31.50;89.20;;;;;;4179961;28;20290;-67
2021/08/20 02:21:56;;;;;;;4.60;3.22;;;31.60;88.50;;;;;;4180571;28;20478;-68
2021/08/20 02:24:18;;;;;;;7.38;3.05;;;31.60;87.90;;;;;;4164890;28;20046;-67
2021/08/20 02:26:33;;;;;;;3.40;2.72;;;31.60;88.50;;;;;;4163174;28;20080;-67
2021/08/20 02:28:39;;;;;;;6.10;2.88;;;31.70;89.00;;;;;;4162260;28;20049;-67
2021/08/20 02:30:45;;;;;;;4.72;2.58;;;31.80;88.90;;;;;;4163934;28;20053;-67
2021/08/20 02:32:51;;;;;;;3.58;2.53;;;31.90;89.00;;;;;;4162574;28;20077;-67
2021/08/20 02:35:04;;;;;;;6.03;2.40;;;32.00;88.10;;;;;;4160828;28;20068;-67
2021/08/20 02:37:13;;;;;;;6.60;2.40;;;31.80;88.60;;;;;;4162195;28;20042;-67
2021/08/20 02:39:22;;;;;;;3.33;2.30;;;32.00;88.90;;;;;;4159380;28;20041;-67
2021/08/20 02:41:31;;;;;;;3.47;2.05;;;32.00;89.40;;;;;;4155351;28;20135;-66
2021/08/20 02:43:50;;;;;;;3.50;2.03;;;32.10;88.30;;;;;;4153476;28;20054;-67
2021/08/20 02:45:59;;;;;;;3.65;1.98;;;31.70;88.20;;;;;;4162563;28;20044;-68
2021/08/20 02:48:07;;;;;;;3.08;2.03;;;31.70;89.70;;;;;;4162124;28;20049;-68
2021/08/20 02:50:19;;;;;;;4.43;2.40;;;31.80;89.70;;;;;;4161874;28;20041;-67
2021/08/20 02:52:36;;;;;;;6.32;2.08;;;32.00;89.40;;;;;;4162857;28;20300;-67
2021/08/20 02:54:55;;;;;;;3.80;2.35;;;32.20;89.20;;;;;;4152405;28;20069;-70
2021/08/20 02:57:05;;;;;;;3.85;2.10;;;32.30;88.80;;;;;;4148272;28;20500;-68
2021/08/20 02:59:22;;;;;;;3.75;2.03;;;32.30;88.10;;;;;;4160585;28;20532;-68
2021/08/20 03:01:50;;;;;;;4.22;2.40;;;32.20;88.50;;;;;;4149192;28;20528;-67
2021/08/20 03:03:57;;;;;;;3.17;2.20;;;32.30;88.00;;;;;;4178534;28;20053;-67
2021/08/20 03:06:05;;;;;;;3.97;2.10;;;32.40;87.40;;;;;;4162574;28;20125;-67
2021/08/20 03:08:11;;;;;;;5.93;2.30;;;32.50;87.80;;;;;;4177823;28;20048;-68
2021/08/20 03:10:20;;;;;;;3.90;2.00;;;32.60;87.20;;;;;;4160842;28;20543;-67
2021/08/20 03:12:29;;;;;;;4.25;1.90;;;32.70;86.10;;;;;;4162486;28;20044;-67
2021/08/20 03:14:35;;;;;;;3.55;2.25;;;32.50;85.10;;;;;;4161417;28;20093;-67
2021/08/20 03:16:41;;;;;;;4.13;2.28;;;32.40;85.70;;;;;;4162855;28;20041;-67
2021/08/20 03:18:46;;;;;;;3.25;2.00;;;32.40;85.70;;;;;;4178062;28;20462;-66
2021/08/20 03:20:54;;;;;;;3.97;2.50;;;32.40;86.00;;;;;;4156813;28;20129;-67
2021/08/20 03:23:10;;;;;;;3.40;2.10;;;32.30;85.70;;;;;;4157638;28;20038;-66
2021/08/20 03:25:16;;;;;;;4.10;2.30;;;32.30;85.60;;;;;;4163337;28;20124;-67
2021/08/20 03:27:21;;;;;;;3.72;2.50;;;32.30;85.70;;;;;;4156238;28;20041;-66
2021/08/20 03:29:47;;;;;;;5.10;2.90;;;32.50;85.30;;;;;;4162164;28;20077;-68
2021/08/20 03:32:05;;;;;;;3.92;2.42;;;32.50;84.80;;;;;;4171651;28;20515;-67
2021/08/20 03:34:10;;;;;;;4.22;2.65;;;32.60;85.50;;;;;;4164147;28;20049;-67
2021/08/20 03:36:17;;;;;;;4.18;2.33;;;32.70;85.70;;;;;;4158401;28;20050;-67
2021/08/20 03:38:28;;;;;;;5.53;2.83;;;32.70;84.80;;;;;;4161416;28;20038;-67
2021/08/20 03:40:32;;;;;;;3.92;2.53;;;32.80;84.70;;;;;;4163556;28;20040;-67
2021/08/20 03:42:40;;;;;;;5.88;2.90;;;32.70;85.10;;;;;;4156321;28;20522;-66
2021/08/20 03:45:00;;;;;;;3.35;2.22;;;32.50;85.20;;;;;;4163084;28;20085;-67
2021/08/20 03:47:07;;;;;;;3.97;2.42;;;32.60;85.90;;;;;;4178756;28;20446;-67
2021/08/20 03:49:12;;;;;;;3.65;2.45;;;32.70;84.50;;;;;;4155617;28;20045;-67
2021/08/20 03:51:17;;;;;;;5.32;2.50;;;32.90;84.90;;;;;;4174895;28;20514;-67
2021/08/20 03:53:23;;;;;;;3.83;2.00;;;33.20;84.40;;;;;;4156309;28;20484;-67
2021/08/20 03:55:32;;;;;;;3.58;1.98;;;33.20;84.60;;;;;;4163425;28;20615;-67
2021/08/20 03:57:49;;;;;;;4.10;2.50;;;33.20;85.20;;;;;;4158214;28;20034;-69
2021/08/20 03:59:55;;;;;;;4.78;2.38;;;33.00;84.30;;;;;;4125773;28;20041;-67
2021/08/20 04:02:05;;;;;;;4.18;2.65;;;33.00;83.60;;;;;;4128641;28;20105;-67
2021/08/20 04:04:14;;;;;;;3.08;2.13;;;33.10;83.70;;;;;;4129549;28;20472;-68
2021/08/20 04:06:40;;;;;;;6.03;2.80;;;33.30;83.90;;;;;;4129819;28;20161;-68
2021/08/20 04:08:50;;;;;;;3.08;2.30;;;33.40;83.90;;;;;;4130881;28;20046;-68
2021/08/20 04:11:15;;;;;;;4.60;2.38;;;33.40;81.70;;;;;;4145943;28;20041;-68
2021/08/20 04:13:27;;;;;;;3.55;2.58;;;33.30;83.00;;;;;;4131012;28;20069;-67
2021/08/20 04:15:34;;;;;;;4.45;2.35;;;33.30;83.60;;;;;;4133547;28;20060;-66
2021/08/20 04:17:41;;;;;;;4.43;2.40;;;33.30;81.50;;;;;;4114201;28;20122;-67
2021/08/20 04:19:46;;;;;;;4.72;2.58;;;33.20;82.80;;;;;;4116794;28;20109;-66
2021/08/20 04:21:52;;;;;;;4.70;2.40;;;33.20;83.40;;;;;;4139923;28;20689;-67
2021/08/20 04:24:03;;;;;;;5.60;2.53;;;33.30;82.90;;;;;;4138636;28;20068;-69
2021/08/20 04:26:09;;;;;;;6.28;2.40;;;33.50;82.00;;;;;;4147700;28;20049;-66
2021/08/20 04:28:23;;;;;;;3.00;2.28;;;33.50;84.20;;;;;;4147910;28;20073;-68
2021/08/20 04:30:50;;;;;;;4.10;2.22;;;33.50;82.80;;;;;;4137439;28;20046;-67
2021/08/20 04:33:08;;;;;;;5.40;2.42;;;33.60;83.70;;;;;;4148315;28;20041;-71
2021/08/20 04:35:32;;;;;;;6.32;2.60;;;33.70;83.30;;;;;;4148075;28;20073;-70
2021/08/20 04:37:48;;;;;;;4.50;2.63;;;33.80;83.00;;;;;;4159619;28;20064;-68
2021/08/20 04:40:10;;;;;;;4.80;2.58;;;33.70;83.60;;;;;;4138941;28;20056;-70
2021/08/20 04:42:41;;;;;;;4.55;2.40;;;33.80;84.40;;;;;;4160324;28;20573;-70
2021/08/20 04:44:58;;;;;;;4.10;2.38;;;33.80;82.90;;;;;;4176085;28;20107;-71
2021/08/20 04:47:16;;;;;;;5.53;2.60;;;34.00;82.70;;;;;;4162275;28;20071;-71
2021/08/20 04:49:41;;;;;;;3.70;2.50;;;33.90;82.00;;;;;;4153782;28;20053;-71
2021/08/20 04:52:07;;;;;;;4.38;2.72;;;33.90;81.90;;;;;;4161814;28;20045;-68
2021/08/20 04:54:28;;;;;;;4.13;2.35;;;34.00;80.80;;;;;;4161662;28;20037;-70
2021/08/20 04:56:34;;;;;;;3.25;2.50;;;33.90;82.20;;;;;;4162693;28;20050;-70
2021/08/20 04:58:39;;;;;;;5.00;2.72;;;34.00;83.90;;;;;;4160861;28;20377;-70
2021/08/20 05:00:46;;;;;;;4.75;2.58;;;34.00;82.30;;;;;;4162678;28;20045;-71
2021/08/20 05:02:51;;;;;;;3.53;2.55;;;34.00;82.00;;;;;;4152144;28;20045;-71
2021/08/20 05:04:56;;;;;;;5.25;2.33;;;33.90;82.30;;;;;;4180104;28;20462;-71
2021/08/20 05:07:03;;;;;;;5.80;3.03;;;34.00;83.10;;;;;;4156843;28;20095;-70
2021/08/20 05:09:09;;;;;;;3.17;2.38;;;34.00;83.40;;;;;;4119663;28;20520;-71
2021/08/20 05:11:17;;;;;;;5.22;2.88;;;34.10;83.60;;;;;;4160976;28;20124;-70
2021/08/20 05:13:21;;;;;;;5.47;2.53;;;34.10;81.30;;;;;;4161927;28;20120;-71
2021/08/20 05:15:27;;;;;;;4.45;2.83;;;34.10;82.60;;;;;;4160881;28;20042;-70
2021/08/20 05:17:33;;;;;;;5.25;2.65;;;34.20;82.70;;;;;;4160128;28;20053;-70
2021/08/20 05:19:38;;;;;;;4.40;2.50;;;34.20;82.30;;;;;;4163765;28;20040;-69
2021/08/20 05:21:44;;;;;;;6.57;2.70;;;34.30;82.50;;;;;;4164349;28;20045;-70
2021/08/20 05:23:50;;;;;;;3.72;2.78;;;34.40;82.60;;;;;;4159450;28;20054;-70
2021/08/20 05:25:55;;;;;;;5.90;3.03;;;34.50;82.00;;;;;;4157394;28;20048;-69
2021/08/20 05:28:02;;;;;;;7.30;3.60;;;34.60;81.80;;;;;;4155808;28;20045;-70
2021/08/20 05:30:09;;;;;;;3.55;2.35;;;34.60;81.30;;;;;;4159744;28;20041;-70
2021/08/20 05:32:14;;;;;;;4.13;2.88;;;34.60;82.00;;;;;;4162811;28;20069;-71
2021/08/20 05:34:20;;;;;;;5.03;2.70;;;34.60;81.70;;;;;;4163333;28;20069;-69
2021/08/20 05:36:24;;;;;;;3.67;2.60;;;34.70;82.50;;;;;;4162688;28;20041;-69
2021/08/20 05:38:29;;;;;;;3.88;2.35;;;34.80;81.70;;;;;;4163166;28;20107;-69
2021/08/20 05:40:34;;;;;;;3.78;2.72;;;34.80;80.40;;;;;;4162913;28;20049;-69
2021/08/20 05:42:39;;;;;;;3.85;2.90;;;34.50;79.50;;;;;;4162433;28;20103;-68
2021/08/20 05:44:44;;;;;;;6.80;2.75;;;34.60;80.10;;;;;;4162806;28;20072;-69
2021/08/20 05:46:54;;;;;;;4.25;2.70;;;34.70;80.80;;;;;;4162629;28;20104;-70
2021/08/20 05:49:03;;;;;;;4.68;2.67;;;34.70;80.10;;;;;;4163283;28;20045;-70
2021/08/20 05:51:08;;;;;;;4.40;2.72;;;34.70;80.40;;;;;;4162679;28;20061;-70
2021/08/20 05:53:14;;;;;;;4.13;3.05;;;34.80;80.70;;;;;;4163059;28;20088;-71
2021/08/20 05:55:19;;;;;;;5.82;2.42;;;34.90;80.00;;;;;;4163406;28;20443;-70
2021/08/20 05:57:27;;;;;;;5.35;2.70;;;34.90;78.90;;;;;;4163518;28;20049;-71
2021/08/20 05:59:34;;;;;;;5.72;2.85;;;34.90;79.30;;;;;;4161229;28;20042;-70
2021/08/20 06:01:46;;;;;;;4.85;2.95;;;35.00;79.60;;;;;;4161422;28;20528;-70
2021/08/20 06:03:53;;;;;;;4.60;2.88;;;35.00;79.00;;;;;;4162061;28;20498;-70
2021/08/20 06:06:13;;;;;;;4.25;2.80;;;35.00;79.40;;;;;;4163597;28;20128;-71
2021/08/20 06:08:19;;;;;;;;;;;34.90;79.80;;;;;;4162812;28;20041;-70
2021/08/20 06:10:25;;;;;;;3.47;2.45;;;35.10;80.90;;;;;;4163032;28;19943;-70
2021/08/20 06:12:37;;;;;;;5.07;2.50;;;35.10;80.10;;;;;;4162974;28;20049;-71
2021/08/20 06:14:44;;;;;;;6.82;3.10;;;35.30;80.20;;;;;;4161787;28;20108;-69
2021/08/20 06:16:55;;;;;;;6.28;3.00;;;35.50;80.10;;;;;;4178056;28;20064;-70
2021/08/20 06:19:00;;;;;;;8.82;3.22;;;35.70;80.30;;;;;;4162924;28;20059;-69
2021/08/20 06:21:08;;;;;;;4.50;2.80;;;35.80;78.60;;;;;;4162977;28;20096;-69
2021/08/20 06:23:13;;;;;;;3.45;2.55;;;35.70;78.60;;;;;;4162555;28;20056;-70
2021/08/20 06:25:18;;;;;;;4.55;2.60;;;35.60;78.60;;;;;;4163401;28;20148;-69
2021/08/20 06:27:24;;;;;;;7.00;3.00;;;35.60;77.90;;;;;;4162954;28;20130;-70
2021/08/20 06:29:29;;;;;;;3.33;2.53;;;35.60;78.20;;;;;;4163077;28;20496;-70
2021/08/20 06:31:35;;;;;;;4.03;2.80;;;35.70;78.90;;;;;;4161324;28;20077;-70
2021/08/20 06:33:41;;;;;;;5.47;2.70;;;35.80;79.20;;;;;;4163351;28;20048;-69
2021/08/20 06:35:46;;;;;;;3.67;2.50;;;35.80;78.90;;;;;;4162056;28;20113;-69
2021/08/20 06:37:52;;;;;;;3.50;2.40;;;35.60;78.20;;;;;;4178369;28;20096;-69
2021/08/20 06:39:57;;;;;;;3.63;2.78;;;35.50;78.90;;;;;;4162886;28;20042;-70
2021/08/20 06:42:02;;;;;;;3.50;2.67;;;35.30;78.80;;;;;;4162699;28;20055;-70
2021/08/20 06:44:09;;;;;;;4.25;2.85;;;35.20;79.60;;;;;;4162913;28;20065;-71
2021/08/20 06:46:14;;;;;;;5.28;2.78;;;35.30;80.00;;;;;;4145657;28;20077;-69
2021/08/20 06:48:19;;;;;;;4.53;2.45;;;35.40;79.40;;;;;;4154510;28;20204;-70
2021/08/20 06:50:24;;;;;;;6.75;2.67;;;35.70;78.70;;;;;;4156588;28;20105;-70
2021/08/20 06:52:30;;;;;;;7.50;2.80;;;35.80;78.30;;;;;;4155275;28;20042;-70
2021/08/20 06:54:36;;;;;;;11.00;3.20;;;35.90;79.50;;;;;;4154954;28;20044;-71
2021/08/20 06:56:42;;;;;;;8.23;3.00;;;35.80;78.20;;;;;;4156994;28;20037;-63
2021/08/20 06:58:47;;;;;;;6.68;2.60;;;35.70;77.70;;;;;;4169776;28;20124;-70
2021/08/20 07:00:52;;;;;;;6.63;2.45;;;35.70;77.70;;;;;;4159062;28;20128;-69
2021/08/20 07:03:00;;;;;;;4.22;2.75;;;35.80;77.70;;;;;;4157741;28;20053;-70
2021/08/20 07:05:05;;;;;;;5.97;2.67;;;36.00;76.80;;;;;;4152967;28;20112;-70
2021/08/20 07:07:17;;;;;;;5.53;2.67;;;36.10;76.70;;;;;;4159654;28;20041;-69
2021/08/20 07:09:24;;;;;;;5.43;2.63;;;36.10;76.50;;;;;;4155391;28;20038;-69
2021/08/20 07:11:30;;;;;;;7.10;2.75;;;36.10;76.20;;;;;;4155878;28;20466;-69
2021/08/20 07:13:37;;;;;;;3.67;2.83;;;36.20;76.60;;;;;;4157591;28;20523;-69
2021/08/20 07:15:42;;;;;;;8.38;2.65;;;36.40;76.20;;;;;;4171108;28;20127;-70
2021/08/20 07:17:47;;;;;;;3.97;2.60;;;36.50;75.80;;;;;;4161707;28;20065;-68
2021/08/20 07:19:53;;;;;;;6.60;3.20;;;36.40;75.30;;;;;;4159831;28;20148;-68
2021/08/20 07:21:57;;;;;;;4.40;3.03;;;36.30;75.70;;;;;;4156547;28;20300;-69
2021/08/20 07:24:03;;;;;;;4.55;2.80;;;36.20;76.20;;;;;;4158255;28;20128;-70
2021/08/20 07:26:08;;;;;;;6.63;3.20;;;36.10;77.00;;;;;;4155076;28;20038;-69
2021/08/20 07:28:12;;;;;;;5.35;2.78;;;35.90;77.50;;;;;;4149797;28;20050;-69
2021/08/20 07:30:17;;;;;;;5.95;3.45;;;35.80;77.70;;;;;;4161467;28;20061;-70
2021/08/20 07:32:25;;;;;;;7.22;3.58;;;35.70;77.50;;;;;;4159681;28;20057;-69
2021/08/20 07:34:32;;;;;;;5.72;3.20;;;35.70;77.50;;;;;;4158397;28;20056;-68
2021/08/20 07:36:37;;;;;;;3.22;2.60;;;35.60;77.10;;;;;;4159176;28;20795;-70
2021/08/20 07:38:41;;;;;;;4.82;3.22;;;35.60;76.40;;;;;;4155180;28;20451;-69
2021/08/20 07:40:46;;;;;;;5.32;3.08;;;35.80;77.80;;;;;;4157280;28;20091;-69
2021/08/20 07:42:50;;;;;;;2.88;2.30;;;35.90;76.50;;;;;;4159570;28;20362;-69
2021/08/20 07:44:56;;;;;;;3.40;2.40;;;35.60;75.90;;;;;;4161835;28;20761;-70
2021/08/20 07:47:01;;;;;;;3.95;2.83;;;35.60;75.80;;;;;;4154842;28;20038;-70
2021/08/20 07:49:06;;;;;;;3.75;2.55;;;35.80;75.30;;;;;;4153905;28;20524;-69
2021/08/20 07:51:10;;;;;;;3.53;2.47;;;36.00;73.60;;;;;;4154983;28;20038;-68
2021/08/20 07:53:18;;;;;;;5.20;2.88;;;35.80;74.40;;;;;;4161099;28;20583;-69
2021/08/20 07:55:25;;;;;;;4.53;2.70;;;35.60;75.40;;;;;;4158859;28;20075;-68
2021/08/20 07:57:30;;;;;;;3.88;2.40;;;35.50;75.60;;;;;;4154714;28;20045;-69
2021/08/20 07:59:34;;;;;;;4.28;2.75;;;35.60;75.40;;;;;;4154129;28;20084;-69
2021/08/20 08:01:39;;;;;;;4.47;2.97;;;35.60;75.80;;;;;;4155054;28;20033;-68
2021/08/20 08:03:44;;;;;;;4.22;3.00;;;35.40;75.20;;;;;;4156682;28;20049;-68
2021/08/20 08:05:49;;;;;;;4.55;3.63;;;35.30;75.60;;;;;;4156456;28;20045;-68
2021/08/20 08:07:56;;;;;;;19.95;13.95;;;35.30;75.10;;;;;;4154127;28;20056;-68
2021/08/20 08:10:00;;;;;;;8.07;5.30;;;35.40;75.20;;;;;;4162063;28;20570;-68
2021/08/20 08:12:05;;;;;;;8.38;6.57;;;35.40;74.60;;;;;;4162817;28;20054;-69
2021/08/20 08:14:10;;;;;;;7.30;6.22;;;35.40;74.50;;;;;;4148782;28;20046;-69
2021/08/20 08:16:15;;;;;;;7.10;4.53;;;35.50;74.40;;;;;;4157547;28;20124;-69
2021/08/20 08:18:20;;;;;;;4.97;3.60;;;35.60;75.00;;;;;;4158785;28;20045;-67
2021/08/20 08:20:24;;;;;;;4.88;3.55;;;35.60;75.20;;;;;;4160517;28;20456;-69
2021/08/20 08:22:29;;;;;;;3.47;2.70;;;35.60;76.70;;;;;;4156912;28;20713;-69
2021/08/20 08:24:34;;;;;;;7.28;3.35;;;35.60;76.40;;;;;;4157968;28;20528;-69
2021/08/20 08:26:39;;;;;;;7.07;3.58;;;35.60;76.10;;;;;;4157923;28;20053;-70
2021/08/20 08:28:55;;;;;;;5.07;3.30;;;35.60;75.80;;;;;;4159681;28;20127;-70
2021/08/20 08:31:02;;;;;;;8.63;2.85;;;35.60;75.40;;;;;;4152557;28;20582;-69
2021/08/20 08:33:09;;;;;;;6.95;3.00;;;35.60;74.70;;;;;;4161536;28;20045;-70
2021/08/20 08:35:34;;;;;;;3.83;3.10;;;35.60;75.10;;;;;;4157165;28;20046;-71
2021/08/20 08:37:38;;;;;;;5.68;3.30;;;35.50;75.30;;;;;;4157626;28;20069;-71
2021/08/20 08:39:43;;;;;;;3.80;2.80;;;35.50;75.20;;;;;;4159398;28;20091;-70
2021/08/20 08:41:48;;;;;;;5.57;2.80;;;35.40;75.00;;;;;;4152918;28;20052;-71
2021/08/20 08:43:55;;;;;;;4.50;2.85;;;35.40;75.20;;;;;;4160233;28;20504;-73
2021/08/20 08:46:05;;;;;;;4.53;2.53;;;35.30;75.80;;;;;;4150979;28;20050;-71
2021/08/20 08:48:11;;;;;;;4.75;2.88;;;35.30;76.40;;;;;;4153425;28;20128;-71
2021/08/20 08:50:16;;;;;;;6.57;3.03;;;35.20;78.50;;;;;;4155614;28;20046;-70
2021/08/20 08:52:20;;;;;;;4.45;2.97;;;35.20;78.10;;;;;;4158802;28;20065;-70
2021/08/20 08:54:25;;;;;;;5.75;2.85;;;35.10;78.20;;;;;;4144161;28;20493;-70
2021/08/20 08:56:30;;;;;;;4.35;3.00;;;35.10;78.20;;;;;;4177940;28;20072;-70
2021/08/20 08:58:36;;;;;;;4.53;2.83;;;35.00;78.30;;;;;;4160263;28;20045;-71
2021/08/20 09:00:41;;;;;;;5.32;3.40;;;34.90;78.50;;;;;;4155168;28;20100;-70
2021/08/20 09:02:47;;;;;;;7.50;3.03;;;34.90;78.50;;;;;;4158180;28;20492;-71
2021/08/20 09:04:55;;;;;;;5.03;2.90;;;34.90;78.70;;;;;;4157875;28;20038;-70
2021/08/20 09:06:59;;;;;;;7.35;4.35;;;34.80;78.70;;;;;;4159237;28;20055;-70
2021/08/20 09:09:07;;;;;;;6.25;4.57;;;34.80;79.60;;;;;;4147860;28;20264;-70
2021/08/20 09:11:13;;;;;;;7.30;3.92;;;34.70;79.70;;;;;;4148294;28;20042;-69
2021/08/20 09:13:18;;;;;;;7.03;4.07;;;34.70;80.10;;;;;;4142350;28;20061;-70
2021/08/20 09:15:25;;;;;;;5.70;4.03;;;34.70;80.80;;;;;;4119612;28;20503;-70
2021/08/20 09:17:35;;;;;;;6.30;3.40;;;34.70;81.00;;;;;;4142422;28;20424;-70
2021/08/20 09:19:40;;;;;;;8.38;4.00;;;34.70;81.20;;;;;;4141281;28;20034;-69
2021/08/20 09:21:48;;;;;;;7.88;4.47;;;34.70;81.50;;;;;;4143668;28;20165;-69
2021/08/20 09:23:57;;;;;;;8.43;5.13;;;34.70;81.80;;;;;;4142543;28;20097;-70
2021/08/20 09:26:02;;;;;;;12.32;4.28;;;34.60;82.10;;;;;;4142643;28;20710;-70
2021/08/20 09:28:15;;;;;;;8.00;4.30;;;34.50;81.80;;;;;;4135714;28;20157;-69
2021/08/20 09:30:22;;;;;;;5.72;3.60;;;34.50;82.00;;;;;;4142554;28;20453;-69
2021/08/20 09:32:28;;;;;;;5.97;3.28;;;34.40;82.90;;;;;;4143883;28;20061;-70
2021/08/20 09:34:33;;;;;;;6.20;3.85;;;34.40;82.60;;;;;;4143213;28;20141;-69
2021/08/20 09:36:37;;;;;;;44.47;23.05;;;34.40;83.40;;;;;;4124848;28;20050;-70
2021/08/20 09:38:45;;;;;;;26.20;13.98;;;34.40;82.80;;;;;;4106020;28;20058;-69
2021/08/20 09:40:53;;;;;;;42.17;23.17;;;34.40;82.80;;;;;;4110411;28;20101;-69
2021/08/20 09:43:20;;;;;;;40.72;22.02;;;34.40;82.90;;;;;;4110447;28;20035;-70
2021/08/20 09:45:24;;;;;;;34.67;18.45;;;34.40;83.20;;;;;;4107209;28;20058;-69
2021/08/20 09:47:32;;;;;;;55.13;26.20;;;34.20;83.70;;;;;;4104856;28;20085;-70
2021/08/20 09:49:57;;;;;;;15.48;7.85;;;33.90;80.80;;;;;;4106778;28;20071;-70
2021/08/20 09:52:02;;;;;;;13.13;5.07;;;33.70;78.20;;;;;;4074895;29;20047;-68
2021/08/20 09:54:18;;;;;;;15.50;6.75;;;33.50;77.10;;;;;;4092160;28;20043;-69
2021/08/20 09:56:36;;;;;;;7.63;3.75;;;33.30;78.00;;;;;;4108264;28;20071;-69
2021/08/20 09:58:40;;;;;;;8.35;3.60;;;33.30;77.70;;;;;;4092279;29;20047;-68
2021/08/20 10:00:47;;;;;;;6.40;3.53;;;33.30;77.80;;;;;;4085563;28;20054;-69
2021/08/20 10:02:53;;;;;;;9.30;3.50;;;33.40;77.40;;;;;;4103229;28;20098;-68
2021/08/20 10:04:59;;;;;;;11.52;6.93;;;33.50;77.50;;;;;;4109831;28;20643;-69
2021/08/20 10:07:06;;;;;;;15.70;10.50;;;33.50;77.60;;;;;;4106873;28;20039;-69
2021/08/20 10:09:12;;;;;;;11.15;6.18;;;33.50;77.70;;;;;;4123341;28;20759;-69
2021/08/20 10:11:20;;;;;;;9.38;5.63;;;33.50;77.90;;;;;;4150795;28;20111;-69
2021/08/20 10:13:25;;;;;;;9.15;3.83;;;33.40;78.00;;;;;;4157854;28;20045;-70
2021/08/20 10:15:30;;;;;;;10.38;2.28;;;33.30;75.80;;;;;;4153633;28;20603;-68
2021/08/20 10:17:35;;;;;;;8.07;2.80;;;33.00;74.80;;;;;;4150205;28;20089;-69
2021/08/20 10:19:41;;;;;;;6.18;1.90;;;32.90;73.80;;;;;;4156702;28;20042;-69
2021/08/20 10:21:46;;;;;;;3.72;1.42;;;32.70;73.30;;;;;;4157435;28;20088;-69
2021/08/20 10:23:51;;;;;;;6.78;3.10;;;32.70;73.40;;;;;;4157827;28;20049;-69
2021/08/20 10:25:56;;;;;;;11.93;4.82;;;32.70;73.00;;;;;;4158858;28;20091;-69
2021/08/20 10:28:01;;;;;;;4.53;2.70;;;32.50;73.70;;;;;;4142196;28;20124;-68
2021/08/20 10:30:07;;;;;;;3.70;2.00;;;32.50;73.60;;;;;;4143221;28;20050;-68
2021/08/20 10:32:13;;;;;;;4.82;1.80;;;32.60;73.40;;;;;;4142203;28;20508;-69
2021/08/20 10:34:31;;;;;;;4.43;1.70;;;32.70;73.90;;;;;;4127146;28;20141;-68
2021/08/20 10:36:40;;;;;;;3.88;2.33;;;32.70;74.80;;;;;;4145290;28;20064;-68
2021/08/20 10:38:48;;;;;;;3.38;2.28;;;32.60;75.10;;;;;;4145698;28;20479;-70
2021/08/20 10:41:17;;;;;;;4.40;2.20;;;32.60;74.90;;;;;;4129646;28;20133;-72
2021/08/20 10:43:46;;;;;;;5.93;2.47;;;32.50;75.10;;;;;;4136567;28;20041;-68
2021/08/20 10:45:50;;;;;;;5.90;1.85;;;32.50;75.50;;;;;;4145852;28;20058;-70
2021/08/20 10:48:15;;;;;;;8.38;3.83;;;32.50;76.00;;;;;;4105584;28;20470;-70
2021/08/20 10:50:21;;;;;;;7.15;3.50;;;32.50;76.40;;;;;;4104718;28;20434;-69
2021/08/20 10:52:28;;;;;;;7.85;2.70;;;32.40;77.30;;;;;;4091760;29;20106;-69
2021/08/20 10:54:42;;;;;;;5.78;2.55;;;32.30;78.00;;;;;;4095224;29;20231;-69
2021/08/20 10:56:47;;;;;;;11.15;3.63;;;32.20;78.40;;;;;;4092921;29;20435;-69
2021/08/20 10:58:51;;;;;;;7.45;3.22;;;32.10;78.50;;;;;;4087425;29;20052;-69
2021/08/20 11:00:57;;;;;;;7.03;2.90;;;31.90;79.30;;;;;;4087243;29;20047;-70
2021/08/20 11:03:04;;;;;;;5.82;3.00;;;31.90;79.10;;;;;;4096712;28;20114;-68
2021/08/20 11:05:14;;;;;;;24.23;12.88;;;32.00;79.20;;;;;;4104963;28;20055;-69
2021/08/20 11:07:35;;;;;;;14.00;7.47;;;32.00;79.40;;;;;;4094057;29;20054;-69